Time;durP1;ratioP1;P1;durP2;ratioP2;P2;SDS_P1;SDS_P2;PMS_P1;PMS_P2;Temp;Humidity;BMP_temperature;BMP_pressure;BME280_temperature;BME280_humidity;BME280_pressure;Samples;Min_cycle;Max_cycle;Signal;HPM_P1;HPM_P2
2023/07/16 00:00:51;;;;;;;2.08;1.35;;;23.20;63.50;;;;;;5115106;28;20188;-64
2023/07/16 00:03:17;;;;;;;2.25;1.38;;;23.20;63.50;;;;;;5114733;28;20169;-58
2023/07/16 00:05:42;;;;;;;1.30;1.20;;;23.20;62.60;;;;;;5114271;28;20220;-59
2023/07/16 00:08:08;;;;;;;1.75;1.35;;;23.20;62.60;;;;;;5114537;28;20215;-59
2023/07/16 00:10:37;;;;;;;3.08;1.45;;;23.20;62.60;;;;;;5114766;28;20169;-58
2023/07/16 00:13:03;;;;;;;1.40;1.30;;;23.20;62.60;;;;;;5113759;28;20205;-58
2023/07/16 00:15:29;;;;;;;1.90;1.40;;;23.20;62.60;;;;;;5114739;28;20173;-58
2023/07/16 00:17:54;;;;;;;2.25;1.55;;;23.20;62.60;;;;;;5114949;28;20176;-58
2023/07/16 00:20:20;;;;;;;1.10;1.00;;;23.20;62.60;;;;;;5113900;28;20205;-58
2023/07/16 00:22:46;;;;;;;1.40;1.25;;;23.20;62.50;;;;;;5114624;28;20505;-58
2023/07/16 00:25:12;;;;;;;4.65;1.67;;;23.20;62.50;;;;;;5114332;28;20213;-59
2023/07/16 00:27:37;;;;;;;2.40;1.30;;;23.20;62.60;;;;;;5113786;28;20181;-58
2023/07/16 00:30:03;;;;;;;1.92;1.60;;;23.20;62.50;;;;;;5114434;28;20623;-58
2023/07/16 00:32:29;;;;;;;2.00;1.50;;;23.10;62.50;;;;;;5114562;28;20169;-58
2023/07/16 00:34:54;;;;;;;1.90;1.40;;;23.20;62.50;;;;;;5114003;28;20169;-59
2023/07/16 00:37:20;;;;;;;2.08;1.55;;;23.10;62.40;;;;;;5114170;28;20172;-59
2023/07/16 00:39:45;;;;;;;2.28;1.40;;;23.10;62.50;;;;;;5114121;28;20225;-59
2023/07/16 00:42:11;;;;;;;1.63;1.20;;;23.10;63.30;;;;;;5113288;28;20173;-59
2023/07/16 00:44:37;;;;;;;2.17;1.50;;;23.10;62.50;;;;;;5114510;28;20220;-59
2023/07/16 00:47:03;;;;;;;2.10;1.35;;;23.10;62.50;;;;;;5113361;28;20177;-58
2023/07/16 00:49:29;;;;;;;2.05;1.40;;;23.10;62.50;;;;;;5096000;28;20551;-58
2023/07/16 00:51:54;;;;;;;2.40;1.48;;;23.10;62.50;;;;;;5114173;28;20169;-58
2023/07/16 00:54:20;;;;;;;1.50;1.30;;;23.10;62.50;;;;;;5113058;28;20181;-58
2023/07/16 00:56:45;;;;;;;1.83;1.38;;;23.10;62.50;;;;;;5095204;28;20264;-58
2023/07/16 00:59:11;;;;;;;1.77;1.67;;;23.10;62.40;;;;;;5095431;28;20169;-58
2023/07/16 01:01:38;;;;;;;1.50;1.40;;;23.10;62.40;;;;;;5113328;28;20199;-58
2023/07/16 01:04:04;;;;;;;1.85;1.48;;;23.10;62.40;;;;;;5113721;28;20555;-59
2023/07/16 01:06:36;;;;;;;1.95;1.40;;;23.10;62.40;;;;;;5113961;28;20177;-59
2023/07/16 01:09:08;;;;;;;1.98;1.42;;;23.10;63.20;;;;;;5094787;28;20179;-58
2023/07/16 01:11:35;;;;;;;1.95;1.10;;;23.10;62.40;;;;;;5113737;28;20169;-58
2023/07/16 01:14:01;;;;;;;1.63;1.40;;;23.10;62.40;;;;;;5095680;28;20177;-58
2023/07/16 01:16:27;;;;;;;1.13;1.10;;;23.10;62.40;;;;;;5113168;28;20173;-59
2023/07/16 01:18:53;;;;;;;1.98;1.48;;;23.10;62.50;;;;;;5113673;28;20185;-59
2023/07/16 01:21:19;;;;;;;1.30;1.20;;;23.10;62.40;;;;;;5113407;28;20169;-59
2023/07/16 01:23:50;;;;;;;2.05;1.75;;;23.10;62.40;;;;;;5112649;28;20632;-58
2023/07/16 01:26:30;;;;;;;2.38;1.40;;;23.10;62.40;;;;;;5113446;28;20238;-58
2023/07/16 01:29:14;;;;;;;2.28;1.30;;;23.10;62.40;;;;;;5096306;28;20179;-58
2023/07/16 01:31:40;;;;;;;2.97;1.50;;;23.10;62.30;;;;;;5113474;28;20169;-58
2023/07/16 01:34:05;;;;;;;1.48;1.38;;;23.10;62.30;;;;;;5095208;28;20165;-58
2023/07/16 01:36:31;;;;;;;1.63;1.40;;;23.10;62.30;;;;;;5094597;28;20173;-58
2023/07/16 01:38:56;;;;;;;2.10;1.50;;;23.10;62.30;;;;;;5094701;28;20251;-58
2023/07/16 01:41:22;;;;;;;1.70;1.60;;;23.10;62.20;;;;;;5095357;28;20187;-59
2023/07/16 01:43:47;;;;;;;2.55;1.20;;;23.10;62.20;;;;;;5112637;28;20169;-59
2023/07/16 01:46:13;;;;;;;1.85;1.30;;;23.00;62.20;;;;;;5113170;28;20177;-59
2023/07/16 01:48:38;;;;;;;1.58;1.23;;;23.00;62.10;;;;;;5113176;28;20699;-59
2023/07/16 01:51:04;;;;;;;1.60;1.45;;;23.00;62.10;;;;;;5112161;28;20252;-58
2023/07/16 01:53:31;;;;;;;1.40;1.27;;;23.00;62.10;;;;;;5113389;28;20180;-58
2023/07/16 01:55:57;;;;;;;2.67;1.52;;;23.00;62.10;;;;;;5113133;28;20275;-58
2023/07/16 01:58:22;;;;;;;1.50;1.20;;;23.00;62.10;;;;;;5112407;28;20546;-60
2023/07/16 02:00:49;;;;;;;1.63;1.38;;;23.00;62.00;;;;;;5113370;28;20179;-59
2023/07/16 02:03:15;;;;;;;2.17;1.52;;;23.00;62.00;;;;;;5112858;28;20554;-59
2023/07/16 02:05:40;;;;;;;1.25;1.15;;;23.00;62.00;;;;;;5112211;28;20672;-58
2023/07/16 02:08:06;;;;;;;2.08;1.63;;;23.00;62.00;;;;;;5115973;28;20538;-58
2023/07/16 02:10:31;;;;;;;2.72;1.70;;;23.00;62.10;;;;;;5117278;28;20169;-59
2023/07/16 02:12:57;;;;;;;2.25;1.50;;;23.00;62.00;;;;;;5116291;28;20176;-58
2023/07/16 02:15:23;;;;;;;1.70;1.50;;;23.00;62.00;;;;;;5117093;28;20180;-58
2023/07/16 02:17:48;;;;;;;2.03;1.77;;;23.00;62.00;;;;;;5116965;28;20260;-58
2023/07/16 02:20:14;;;;;;;1.38;1.27;;;23.00;62.00;;;;;;5115916;28;20188;-59
2023/07/16 02:22:39;;;;;;;2.40;1.40;;;23.00;61.90;;;;;;5117258;28;20165;-59
2023/07/16 02:25:05;;;;;;;2.53;1.80;;;23.00;61.90;;;;;;5116790;28;20679;-58
2023/07/16 02:27:31;;;;;;;1.52;1.42;;;23.00;61.90;;;;;;5116447;28;20218;-58
2023/07/16 02:29:56;;;;;;;2.65;1.77;;;23.00;61.90;;;;;;5116672;28;20173;-58
2023/07/16 02:32:22;;;;;;;1.75;1.60;;;23.00;61.90;;;;;;5116926;28;20169;-58
2023/07/16 02:34:48;;;;;;;2.85;1.58;;;22.90;61.80;;;;;;5115940;28;20631;-59
2023/07/16 02:37:13;;;;;;;3.67;1.77;;;23.00;62.70;;;;;;5116323;28;20169;-58
2023/07/16 02:39:44;;;;;;;1.70;1.60;;;22.90;61.80;;;;;;5115824;28;20225;-58
2023/07/16 02:42:10;;;;;;;2.17;1.60;;;23.00;61.80;;;;;;5116452;28;20213;-58
2023/07/16 02:44:41;;;;;;;1.83;1.25;;;22.90;61.80;;;;;;5116682;28;20299;-58
2023/07/16 02:47:07;;;;;;;2.85;1.88;;;23.00;61.80;;;;;;5115576;28;20184;-58
2023/07/16 02:49:32;;;;;;;3.05;1.60;;;22.90;61.70;;;;;;5116426;28;20177;-58
2023/07/16 02:51:58;;;;;;;2.53;1.70;;;23.00;61.90;;;;;;5116497;27;20181;-58
2023/07/16 02:54:23;;;;;;;3.35;1.70;;;22.90;61.80;;;;;;5136489;27;20182;-60
2023/07/16 02:56:49;;;;;;;1.73;1.52;;;22.90;61.80;;;;;;5136999;27;20168;-58
2023/07/16 02:59:15;;;;;;;2.75;1.58;;;22.90;61.80;;;;;;5136758;27;20672;-58
2023/07/16 03:01:40;;;;;;;3.03;1.60;;;22.90;61.70;;;;;;5135949;27;20242;-58
2023/07/16 03:04:06;;;;;;;2.92;1.55;;;22.90;61.70;;;;;;5136318;27;20208;-59
2023/07/16 03:06:31;;;;;;;1.70;1.60;;;22.90;61.70;;;;;;5137040;27;20179;-59
2023/07/16 03:08:57;;;;;;;2.38;1.50;;;22.90;62.50;;;;;;5135695;27;20566;-59
2023/07/16 03:11:22;;;;;;;3.25;1.42;;;22.90;61.70;;;;;;5136809;27;20524;-58
2023/07/16 03:13:48;;;;;;;2.60;1.60;;;22.90;61.70;;;;;;5136744;27;20191;-58
2023/07/16 03:16:14;;;;;;;2.75;1.58;;;22.90;61.70;;;;;;5135517;27;20247;-58
2023/07/16 03:18:39;;;;;;;1.67;1.48;;;22.90;61.60;;;;;;5136015;27;20649;-58
2023/07/16 03:21:05;;;;;;;1.90;1.33;;;22.90;61.60;;;;;;5136386;27;20164;-58
2023/07/16 03:23:30;;;;;;;3.08;1.58;;;22.90;61.60;;;;;;5135647;27;20168;-58
2023/07/16 03:25:56;;;;;;;1.80;1.50;;;22.90;61.60;;;;;;5135864;27;20251;-58
2023/07/16 03:28:21;;;;;;;1.70;1.60;;;22.90;61.60;;;;;;5136212;27;20171;-58
2023/07/16 03:30:48;;;;;;;1.65;1.48;;;22.90;61.70;;;;;;5135455;27;20204;-58
2023/07/16 03:33:13;;;;;;;1.27;1.15;;;22.90;61.60;;;;;;5135819;27;20196;-59
2023/07/16 03:35:39;;;;;;;2.97;1.70;;;22.90;61.60;;;;;;5136422;27;20608;-59
2023/07/16 03:38:04;;;;;;;2.47;1.50;;;22.90;61.70;;;;;;5135228;27;20171;-59
2023/07/16 03:40:30;;;;;;;3.38;1.80;;;22.90;61.60;;;;;;5136414;27;20180;-59
2023/07/16 03:42:56;;;;;;;2.90;1.60;;;22.90;61.60;;;;;;5135042;27;20172;-59
2023/07/16 03:45:21;;;;;;;2.15;1.50;;;22.90;61.60;;;;;;5135945;27;20211;-59
2023/07/16 03:47:47;;;;;;;2.15;1.45;;;22.90;61.60;;;;;;5135857;27;20603;-58
2023/07/16 03:50:12;;;;;;;2.30;1.80;;;22.80;62.40;;;;;;5134738;27;20176;-58
2023/07/16 03:52:38;;;;;;;3.10;1.80;;;22.80;61.50;;;;;;5135722;27;20267;-58
2023/07/16 03:55:04;;;;;;;2.70;1.90;;;22.90;61.60;;;;;;5135573;27;20196;-58
2023/07/16 03:57:29;;;;;;;2.70;1.52;;;22.80;61.40;;;;;;5135343;27;20578;-58
2023/07/16 03:59:55;;;;;;;2.80;1.40;;;22.80;61.50;;;;;;5135731;27;20534;-58
2023/07/16 04:02:21;;;;;;;2.33;1.73;;;22.80;61.50;;;;;;5135537;27;20517;-59
2023/07/16 04:04:46;;;;;;;2.25;1.63;;;22.90;61.50;;;;;;5135101;27;20320;-59
2023/07/16 04:07:12;;;;;;;3.47;1.67;;;22.80;61.50;;;;;;5135299;27;20177;-59
2023/07/16 04:09:38;;;;;;;2.72;1.88;;;22.90;61.50;;;;;;5135639;27;20180;-59
2023/07/16 04:12:05;;;;;;;2.70;1.77;;;22.80;61.40;;;;;;5134643;27;20165;-58
2023/07/16 04:14:30;;;;;;;3.67;1.60;;;22.80;61.40;;;;;;5135472;27;20172;-58
2023/07/16 04:16:56;;;;;;;1.85;1.50;;;22.80;61.40;;;;;;5134986;27;20199;-59
2023/07/16 04:19:21;;;;;;;1.63;1.52;;;22.80;61.40;;;;;;5134806;27;20535;-58
2023/07/16 04:21:47;;;;;;;2.60;1.65;;;22.80;61.40;;;;;;5135356;27;20615;-58
2023/07/16 04:24:12;;;;;;;3.03;1.90;;;22.90;61.40;;;;;;5135024;27;20257;-59
2023/07/16 04:26:38;;;;;;;2.95;1.55;;;22.90;61.40;;;;;;5134546;27;20230;-58
2023/07/16 04:29:03;;;;;;;2.05;1.30;;;22.80;61.30;;;;;;5135002;27;20165;-59
2023/07/16 04:31:29;;;;;;;2.95;1.77;;;22.80;61.30;;;;;;5134123;27;20172;-59
2023/07/16 04:33:54;;;;;;;2.03;1.63;;;22.80;61.30;;;;;;5134295;27;20179;-59
2023/07/16 04:36:20;;;;;;;1.77;1.40;;;22.80;61.30;;;;;;5134878;27;20200;-59
2023/07/16 04:38:45;;;;;;;2.53;1.60;;;22.80;61.30;;;;;;5134652;27;20272;-59
2023/07/16 04:41:12;;;;;;;1.70;1.60;;;22.80;61.30;;;;;;5134027;27;20184;-60
2023/07/16 04:43:38;;;;;;;2.08;1.50;;;22.80;61.30;;;;;;5135039;27;20221;-60
2023/07/16 04:46:04;;;;;;;1.80;1.65;;;22.90;62.20;;;;;;5134523;27;20207;-59
2023/07/16 04:48:29;;;;;;;2.00;1.73;;;22.90;61.30;;;;;;5134248;27;20643;-59
2023/07/16 04:50:55;;;;;;;4.38;1.75;;;22.80;61.30;;;;;;5134838;27;20563;-59
2023/07/16 04:53:22;;;;;;;1.85;1.65;;;22.80;61.20;;;;;;5133856;27;20255;-59
2023/07/16 04:55:47;;;;;;;3.53;1.85;;;22.80;61.20;;;;;;5134708;27;20529;-58
2023/07/16 04:58:13;;;;;;;1.70;1.60;;;22.90;61.20;;;;;;5134270;27;20172;-59
2023/07/16 05:00:38;;;;;;;3.67;2.03;;;22.90;61.20;;;;;;5134016;27;20172;-63
2023/07/16 05:03:04;;;;;;;2.42;1.65;;;22.90;61.20;;;;;;5134493;27;20183;-59
2023/07/16 05:05:29;;;;;;;2.72;1.98;;;22.80;61.20;;;;;;5134472;27;20212;-60
2023/07/16 05:07:55;;;;;;;2.40;2.00;;;22.80;61.10;;;;;;5133618;27;20175;-60
2023/07/16 05:10:20;;;;;;;2.42;2.10;;;22.80;61.10;;;;;;5134156;27;20168;-60
2023/07/16 05:12:46;;;;;;;2.10;1.90;;;22.80;61.00;;;;;;5134547;27;20255;-59
2023/07/16 05:15:12;;;;;;;3.47;2.15;;;22.80;61.00;;;;;;5133261;27;20173;-59
2023/07/16 05:17:37;;;;;;;2.75;1.77;;;22.80;61.00;;;;;;5134142;27;20198;-59
2023/07/16 05:20:06;;;;;;;2.78;1.90;;;22.80;61.00;;;;;;5134108;27;20176;-59
2023/07/16 05:22:32;;;;;;;3.17;1.90;;;22.80;60.90;;;;;;5133510;27;20173;-59
2023/07/16 05:24:58;;;;;;;2.25;1.88;;;22.80;60.90;;;;;;5133802;27;20571;-59
2023/07/16 05:27:23;;;;;;;3.17;2.10;;;22.80;60.90;;;;;;5134110;27;20670;-59
2023/07/16 05:29:49;;;;;;;2.47;1.90;;;22.80;60.80;;;;;;5133177;27;20180;-59
2023/07/16 05:32:14;;;;;;;2.85;1.90;;;22.90;60.80;;;;;;5133580;27;20618;-59
2023/07/16 05:34:40;;;;;;;2.80;1.88;;;22.80;60.70;;;;;;5133859;27;20180;-59
2023/07/16 05:37:06;;;;;;;3.40;2.10;;;22.80;60.70;;;;;;5133151;27;20173;-59
2023/07/16 05:39:31;;;;;;;3.13;2.30;;;22.80;60.70;;;;;;5133709;27;20682;-60
2023/07/16 05:41:57;;;;;;;4.03;2.08;;;22.80;60.70;;;;;;5133238;27;20595;-59
2023/07/16 05:44:22;;;;;;;2.95;1.90;;;22.80;60.60;;;;;;5133034;27;20302;-57
2023/07/16 05:46:48;;;;;;;3.17;2.25;;;22.80;60.50;;;;;;5133815;27;20175;-58
2023/07/16 05:49:13;;;;;;;4.35;2.47;;;22.80;60.50;;;;;;5133651;28;20204;-59
2023/07/16 05:51:39;;;;;;;3.30;2.47;;;22.80;60.50;;;;;;5133293;28;20289;-58
2023/07/16 05:54:05;;;;;;;3.65;2.25;;;22.80;60.50;;;;;;5133697;28;20639;-57
2023/07/16 05:56:30;;;;;;;3.83;2.50;;;22.80;60.50;;;;;;5132946;28;20316;-58
2023/07/16 05:58:56;;;;;;;4.38;2.28;;;22.80;60.50;;;;;;5133452;28;20183;-59
2023/07/16 06:01:21;;;;;;;2.42;2.10;;;22.80;60.50;;;;;;5133886;28;20165;-58
2023/07/16 06:03:47;;;;;;;3.97;2.08;;;22.80;60.50;;;;;;5132946;28;20172;-59
2023/07/16 06:06:13;;;;;;;3.83;2.30;;;22.80;60.50;;;;;;5133599;28;20213;-58
2023/07/16 06:08:38;;;;;;;2.92;2.13;;;22.80;60.50;;;;;;5133718;28;20164;-59
2023/07/16 06:11:04;;;;;;;3.13;2.10;;;22.80;60.40;;;;;;5132798;28;20173;-58
2023/07/16 06:13:30;;;;;;;2.53;2.20;;;22.80;60.50;;;;;;5133605;28;20176;-58
2023/07/16 06:15:55;;;;;;;3.85;2.30;;;22.80;60.40;;;;;;5133512;28;20619;-58
2023/07/16 06:18:21;;;;;;;3.13;2.22;;;22.80;60.30;;;;;;5132965;28;20179;-58
2023/07/16 06:20:46;;;;;;;4.13;2.25;;;22.80;60.30;;;;;;5133511;28;20169;-58
2023/07/16 06:23:12;;;;;;;5.32;2.67;;;22.80;60.30;;;;;;5133441;28;20180;-57
2023/07/16 06:25:40;;;;;;;2.90;2.53;;;22.80;60.20;;;;;;5132660;28;20674;-58
2023/07/16 06:28:05;;;;;;;3.30;2.78;;;22.80;60.20;;;;;;5133105;28;20188;-58
2023/07/16 06:30:32;;;;;;;2.83;2.47;;;22.80;60.20;;;;;;5133362;28;20172;-58
2023/07/16 06:32:58;;;;;;;6.28;2.97;;;22.80;60.20;;;;;;5132704;28;20180;-58
2023/07/16 06:35:24;;;;;;;3.53;2.80;;;22.80;60.20;;;;;;5133517;28;20185;-59
2023/07/16 06:37:49;;;;;;;3.90;2.72;;;22.80;60.20;;;;;;5133486;28;20171;-59
2023/07/16 06:40:15;;;;;;;2.60;2.40;;;22.80;60.10;;;;;;5132189;28;21092;-59
2023/07/16 06:42:41;;;;;;;2.58;2.38;;;22.80;60.10;;;;;;5133339;28;20263;-59
2023/07/16 06:45:07;;;;;;;5.57;2.60;;;22.80;60.10;;;;;;5133423;28;20218;-59
2023/07/16 06:47:32;;;;;;;2.65;2.35;;;22.80;60.10;;;;;;5133167;28;20619;-58
2023/07/16 06:49:58;;;;;;;2.85;2.60;;;22.80;60.10;;;;;;5133012;28;20206;-58
2023/07/16 06:52:27;;;;;;;2.83;2.35;;;22.80;60.00;;;;;;5133435;28;20169;-56
2023/07/16 06:54:56;;;;;;;2.90;2.70;;;22.80;60.00;;;;;;5134907;27;20200;-57
2023/07/16 06:57:24;;;;;;;5.22;2.92;;;22.80;60.00;;;;;;5136993;27;20695;-58
2023/07/16 06:59:50;;;;;;;4.28;2.65;;;22.80;60.80;;;;;;5135954;27;20559;-58
2023/07/16 07:02:16;;;;;;;5.25;3.10;;;22.80;59.90;;;;;;5136619;27;20172;-58
2023/07/16 07:04:42;;;;;;;3.80;3.00;;;22.80;59.90;;;;;;5136167;27;20219;-59
2023/07/16 07:07:07;;;;;;;3.20;2.53;;;22.80;59.90;;;;;;5135648;27;20172;-57
2023/07/16 07:09:33;;;;;;;3.08;2.80;;;22.90;60.00;;;;;;5136702;27;20237;-58
2023/07/16 07:11:59;;;;;;;5.22;2.70;;;22.80;59.90;;;;;;5136290;27;20247;-58
2023/07/16 07:14:24;;;;;;;3.47;2.65;;;22.80;59.90;;;;;;5135878;27;20198;-58
2023/07/16 07:16:50;;;;;;;5.55;2.92;;;22.80;59.90;;;;;;5136809;27;20174;-58
2023/07/16 07:19:15;;;;;;;3.85;2.90;;;22.80;60.80;;;;;;5136431;27;20529;-60
2023/07/16 07:21:41;;;;;;;3.03;2.75;;;22.80;59.80;;;;;;5135844;27;20176;-58
2023/07/16 07:24:06;;;;;;;4.72;3.10;;;22.80;59.80;;;;;;5136123;27;20311;-58
2023/07/16 07:26:32;;;;;;;4.13;3.05;;;22.80;59.80;;;;;;5136357;27;20194;-57
2023/07/16 07:28:57;;;;;;;6.75;3.20;;;22.80;59.80;;;;;;5135537;27;20190;-59
2023/07/16 07:31:23;;;;;;;3.40;3.10;;;22.80;59.80;;;;;;5136441;27;20180;-58
2023/07/16 07:33:48;;;;;;;3.10;2.65;;;22.80;59.80;;;;;;5136127;27;20176;-58
2023/07/16 07:36:14;;;;;;;3.20;2.65;;;22.80;59.80;;;;;;5135016;27;20215;-59
2023/07/16 07:38:40;;;;;;;3.80;2.60;;;22.80;59.70;;;;;;5136139;27;20216;-59
2023/07/16 07:41:06;;;;;;;3.95;2.70;;;22.80;59.70;;;;;;5135688;27;20176;-59
2023/07/16 07:43:31;;;;;;;5.68;2.97;;;22.80;59.80;;;;;;5135521;27;20177;-60
2023/07/16 07:45:57;;;;;;;4.22;2.92;;;22.80;59.60;;;;;;5135826;27;20219;-59
2023/07/16 07:48:22;;;;;;;5.97;3.15;;;22.90;59.60;;;;;;5135929;27;20164;-58
2023/07/16 07:50:48;;;;;;;3.88;2.85;;;22.80;59.60;;;;;;5135177;27;20172;-58
2023/07/16 07:53:14;;;;;;;3.70;3.22;;;22.90;59.60;;;;;;5135734;27;20180;-58
2023/07/16 07:55:40;;;;;;;3.53;2.90;;;22.90;59.60;;;;;;5135609;27;20267;-58
2023/07/16 07:58:07;;;;;;;4.38;3.35;;;22.90;59.60;;;;;;5135037;27;20694;-59
2023/07/16 08:00:35;;;;;;;4.93;3.13;;;22.90;59.50;;;;;;5135702;27;20172;-58
2023/07/16 08:03:01;;;;;;;3.83;2.85;;;22.90;59.50;;;;;;5135580;27;20178;-59
2023/07/16 08:05:27;;;;;;;4.85;3.20;;;22.90;59.50;;;;;;5134756;27;20204;-59
2023/07/16 08:07:53;;;;;;;3.10;2.80;;;22.90;59.40;;;;;;5135331;27;20175;-59
2023/07/16 08:10:19;;;;;;;3.75;3.22;;;23.00;59.40;;;;;;5134537;27;20631;-58
2023/07/16 08:12:44;;;;;;;3.85;2.70;;;22.90;59.30;;;;;;5135609;27;20168;-58
2023/07/16 08:15:13;;;;;;;4.07;3.63;;;22.90;59.40;;;;;;5135165;27;20169;-58
2023/07/16 08:17:40;;;;;;;6.07;4.05;;;22.90;59.20;;;;;;5134804;27;20255;-58
2023/07/16 08:20:07;;;;;;;4.03;3.15;;;22.90;59.10;;;;;;5135064;27;20180;-58
2023/07/16 08:22:32;;;;;;;5.10;3.45;;;22.90;59.10;;;;;;5135165;27;20168;-58
2023/07/16 08:24:58;;;;;;;4.55;3.63;;;22.90;59.10;;;;;;5134357;27;20658;-58
2023/07/16 08:27:24;;;;;;;4.40;3.72;;;22.90;59.20;;;;;;5135174;27;20512;-58
2023/07/16 08:29:49;;;;;;;3.97;3.58;;;22.90;59.20;;;;;;5135363;27;20172;-58
2023/07/16 08:32:15;;;;;;;5.07;3.60;;;22.90;59.00;;;;;;5133974;27;20752;-67
2023/07/16 08:34:40;;;;;;;6.03;4.35;;;22.90;59.00;;;;;;5135159;27;20180;-70
2023/07/16 08:37:06;;;;;;;8.40;4.80;;;23.00;58.80;;;;;;5134680;27;20237;-73
2023/07/16 08:39:32;;;;;;;5.03;4.28;;;23.10;58.50;;;;;;5134034;27;20738;-73
2023/07/16 08:41:57;;;;;;;6.22;4.00;;;23.10;58.40;;;;;;5134613;27;20173;-72
2023/07/16 08:44:23;;;;;;;6.93;4.35;;;23.10;58.30;;;;;;5134478;27;20238;-74
2023/07/16 08:46:50;;;;;;;5.95;4.38;;;23.20;58.20;;;;;;5134239;27;20181;-72
2023/07/16 08:49:15;;;;;;;5.90;3.78;;;23.10;58.30;;;;;;5099416;27;20209;-72
2023/07/16 08:51:41;;;;;;;5.80;4.40;;;23.20;58.40;;;;;;5116289;27;20172;-68
2023/07/16 08:54:06;;;;;;;4.85;4.00;;;23.20;58.40;;;;;;5115490;27;20180;-68
2023/07/16 08:56:32;;;;;;;6.18;3.75;;;23.30;58.20;;;;;;5134803;27;20695;-67
2023/07/16 08:58:57;;;;;;;5.45;4.18;;;23.30;58.20;;;;;;5134118;27;20204;-67
2023/07/16 09:01:23;;;;;;;6.07;4.07;;;23.40;58.30;;;;;;5115610;27;20168;-68
2023/07/16 09:03:49;;;;;;;6.20;4.28;;;23.40;58.10;;;;;;5116414;27;20172;-69
2023/07/16 09:06:14;;;;;;;5.75;4.03;;;23.40;58.80;;;;;;5134211;27;20208;-70
2023/07/16 09:08:40;;;;;;;6.68;3.95;;;23.50;58.30;;;;;;5133525;27;20248;-67
2023/07/16 09:11:05;;;;;;;5.38;4.10;;;23.50;58.30;;;;;;5134197;27;20177;-67
2023/07/16 09:13:31;;;;;;;6.47;4.65;;;23.50;58.30;;;;;;5115339;27;20665;-68
2023/07/16 09:15:57;;;;;;;7.78;4.38;;;23.60;58.30;;;;;;5133774;27;20172;-67
2023/07/16 09:18:24;;;;;;;5.53;4.25;;;23.60;58.40;;;;;;5134065;27;20165;-66
2023/07/16 09:21:01;;;;;;;5.25;3.63;;;23.60;58.30;;;;;;5133560;27;20278;-66
2023/07/16 09:23:27;;;;;;;6.78;4.28;;;23.60;58.40;;;;;;5134458;27;20251;-67
2023/07/16 09:25:55;;;;;;;5.72;4.47;;;23.60;58.40;;;;;;5134281;27;20403;-67
2023/07/16 09:28:21;;;;;;;5.70;3.95;;;23.70;58.40;;;;;;5133400;27;20245;-66
2023/07/16 09:30:48;;;;;;;7.80;4.18;;;23.70;58.40;;;;;;5133997;27;20217;-67
2023/07/16 09:33:21;;;;;;;6.10;3.75;;;23.70;58.50;;;;;;5134040;27;20183;-67
2023/07/16 09:35:50;;;;;;;5.63;3.80;;;23.70;58.50;;;;;;5133529;27;20176;-66
2023/07/16 09:38:15;;;;;;;7.07;4.22;;;23.70;58.60;;;;;;5133883;27;20172;-67
2023/07/16 09:40:42;;;;;;;4.32;3.90;;;23.70;58.60;;;;;;5130705;27;20230;-68
2023/07/16 09:43:08;;;;;;;4.95;4.18;;;23.80;58.60;;;;;;5122957;27;20264;-67
2023/07/16 09:45:34;;;;;;;6.68;3.92;;;23.70;58.50;;;;;;5123055;27;20212;-67
2023/07/16 09:48:00;;;;;;;7.70;4.20;;;23.70;58.70;;;;;;5121694;27;20251;-72
2023/07/16 09:50:27;;;;;;;5.55;4.07;;;23.70;58.80;;;;;;5105396;28;20160;-67
2023/07/16 09:52:52;;;;;;;7.85;4.32;;;23.60;58.90;;;;;;5095033;28;20777;-71
2023/07/16 09:55:18;;;;;;;6.82;4.00;;;23.60;59.00;;;;;;5113159;28;20184;-72
2023/07/16 09:57:44;;;;;;;4.28;3.88;;;23.50;59.10;;;;;;5094681;28;20569;-73
2023/07/16 10:00:13;;;;;;;5.10;4.60;;;23.50;59.10;;;;;;5095410;28;20169;-73
2023/07/16 10:02:39;;;;;;;6.45;3.97;;;23.50;59.00;;;;;;5095115;28;20161;-74
2023/07/16 10:05:15;;;;;;;5.85;4.03;;;23.50;59.10;;;;;;5094772;28;20561;-74
2023/07/16 10:07:40;;;;;;;4.93;3.97;;;23.50;59.00;;;;;;5113198;28;20259;-74
2023/07/16 10:10:10;;;;;;;7.50;4.00;;;23.50;59.00;;;;;;5111917;28;20263;-72
2023/07/16 10:12:37;;;;;;;5.15;4.30;;;23.50;58.90;;;;;;5113076;28;20170;-72
2023/07/16 10:15:04;;;;;;;6.55;4.20;;;23.50;58.80;;;;;;5112614;28;20264;-71
2023/07/16 10:17:31;;;;;;;4.32;3.55;;;23.60;58.80;;;;;;5094443;28;20201;-71
2023/07/16 10:20:00;;;;;;;6.30;4.18;;;23.60;58.70;;;;;;5112835;28;20177;-72
2023/07/16 10:22:42;;;;;;;4.70;3.95;;;23.60;58.70;;;;;;5113138;28;20201;-71
2023/07/16 10:25:21;;;;;;;5.78;4.50;;;23.70;58.50;;;;;;5111905;28;20208;-71
2023/07/16 10:27:48;;;;;;;6.75;4.50;;;23.70;58.40;;;;;;5113170;28;20172;-71
2023/07/16 10:30:14;;;;;;;5.95;3.80;;;23.70;58.40;;;;;;5115821;28;20252;-71
2023/07/16 10:32:39;;;;;;;5.63;4.13;;;23.70;59.00;;;;;;5116283;28;20261;-70
2023/07/16 10:35:06;;;;;;;6.50;3.78;;;23.70;58.40;;;;;;5116407;28;20632;-76
2023/07/16 10:37:31;;;;;;;6.55;3.92;;;23.70;58.50;;;;;;5116606;28;20636;-73
2023/07/16 10:39:59;;;;;;;5.40;3.90;;;23.60;58.60;;;;;;5115403;28;20259;-73
2023/07/16 10:42:25;;;;;;;4.43;4.03;;;23.60;58.50;;;;;;5116455;28;20192;-71
2023/07/16 10:44:55;;;;;;;8.98;4.07;;;23.60;58.50;;;;;;5115892;28;20292;-72
2023/07/16 10:47:30;;;;;;;6.28;4.28;;;23.70;58.50;;;;;;5116678;28;20264;-70
2023/07/16 10:49:56;;;;;;;5.68;3.88;;;23.60;58.40;;;;;;5116167;28;20173;-71
2023/07/16 10:52:22;;;;;;;6.88;4.07;;;23.60;58.40;;;;;;5115624;28;20181;-70
2023/07/16 10:54:54;;;;;;;10.98;5.15;;;23.60;58.40;;;;;;5116202;28;20181;-71
2023/07/16 10:57:21;;;;;;;5.93;3.67;;;23.60;58.40;;;;;;5116373;28;20176;-71
2023/07/16 10:59:48;;;;;;;6.22;3.92;;;23.60;58.40;;;;;;5115474;28;20179;-73
2023/07/16 11:02:14;;;;;;;4.75;3.88;;;23.70;59.00;;;;;;5097987;28;20643;-71
2023/07/16 11:04:40;;;;;;;7.03;4.00;;;23.70;58.30;;;;;;5116039;28;20209;-73
2023/07/16 11:07:08;;;;;;;7.43;4.15;;;23.70;58.20;;;;;;5115127;28;20173;-73
2023/07/16 11:09:33;;;;;;;5.28;4.03;;;23.80;58.20;;;;;;5116129;28;20527;-69
2023/07/16 11:12:12;;;;;;;6.20;4.60;;;23.70;58.10;;;;;;5116026;28;20183;-70
2023/07/16 11:14:38;;;;;;;4.88;4.05;;;23.80;58.40;;;;;;5115251;28;20177;-69
2023/07/16 11:17:08;;;;;;;8.43;4.00;;;23.70;58.20;;;;;;5115608;28;20181;-71
2023/07/16 11:19:34;;;;;;;6.18;4.47;;;23.60;58.30;;;;;;5115866;28;20256;-70
2023/07/16 11:22:01;;;;;;;5.80;4.55;;;23.60;58.40;;;;;;5115155;28;20226;-70
2023/07/16 11:24:27;;;;;;;6.10;4.22;;;23.60;58.40;;;;;;5115737;28;20216;-69
2023/07/16 11:26:53;;;;;;;4.38;3.97;;;23.60;59.20;;;;;;5115150;28;20188;-69
2023/07/16 11:29:19;;;;;;;4.93;3.97;;;23.60;58.60;;;;;;5115819;28;20181;-70
2023/07/16 11:31:48;;;;;;;6.55;4.28;;;23.60;58.70;;;;;;5116580;28;20176;-71
2023/07/16 11:34:14;;;;;;;4.20;3.72;;;23.60;58.70;;;;;;5097244;28;20230;-70
2023/07/16 11:36:39;;;;;;;6.25;4.18;;;23.60;58.70;;;;;;5115989;28;20177;-73
2023/07/16 11:39:05;;;;;;;6.13;4.22;;;23.50;58.60;;;;;;5115096;28;20225;-71
2023/07/16 11:41:30;;;;;;;6.97;3.90;;;23.60;58.60;;;;;;5096157;28;20226;-70
2023/07/16 11:44:02;;;;;;;7.75;4.25;;;23.60;58.60;;;;;;5115179;28;20180;-72
2023/07/16 11:46:32;;;;;;;4.97;3.47;;;23.60;58.50;;;;;;5115543;28;20185;-69
2023/07/16 11:48:57;;;;;;;4.47;3.83;;;23.70;58.40;;;;;;5114268;28;20205;-71
2023/07/16 11:51:23;;;;;;;4.50;3.60;;;23.70;58.30;;;;;;5115503;28;20230;-69
2023/07/16 11:53:49;;;;;;;5.32;4.40;;;23.70;58.30;;;;;;5115418;28;20173;-71
2023/07/16 11:56:14;;;;;;;7.25;4.35;;;23.70;58.40;;;;;;5114336;28;20225;-70
2023/07/16 11:58:40;;;;;;;5.68;4.28;;;23.60;58.50;;;;;;5115214;28;20173;-71
2023/07/16 12:01:05;;;;;;;6.65;3.83;;;23.60;58.50;;;;;;5114911;28;20188;-73
2023/07/16 12:03:31;;;;;;;5.07;3.90;;;23.60;58.50;;;;;;5096112;28;20173;-72
2023/07/16 12:05:56;;;;;;;4.40;4.00;;;23.50;58.60;;;;;;5114188;28;20221;-72
2023/07/16 12:08:22;;;;;;;5.75;4.53;;;23.50;58.70;;;;;;5115202;28;20200;-71
2023/07/16 12:10:47;;;;;;;5.53;4.10;;;23.50;58.00;;;;;;5114093;28;20169;-70
2023/07/16 12:13:13;;;;;;;4.65;4.05;;;23.50;58.40;;;;;;5114508;28;20181;-70
2023/07/16 12:15:38;;;;;;;5.70;4.20;;;23.60;58.30;;;;;;5114753;28;20217;-72
2023/07/16 12:18:04;;;;;;;3.95;3.55;;;23.70;58.70;;;;;;5113639;28;20215;-71
2023/07/16 12:20:29;;;;;;;4.85;4.30;;;23.70;58.00;;;;;;5114961;28;20632;-70
2023/07/16 12:22:55;;;;;;;4.28;3.80;;;23.70;57.90;;;;;;5114742;28;20173;-70
2023/07/16 12:25:20;;;;;;;4.30;3.90;;;23.70;57.90;;;;;;5113735;28;20213;-69
2023/07/16 12:27:46;;;;;;;7.72;4.70;;;23.70;57.80;;;;;;5114741;28;20227;-70
2023/07/16 12:30:12;;;;;;;6.28;4.10;;;23.60;57.80;;;;;;5114354;28;20642;-70
2023/07/16 12:32:38;;;;;;;5.72;4.20;;;23.60;57.90;;;;;;5113981;28;20169;-72
2023/07/16 12:35:06;;;;;;;5.32;4.18;;;23.60;57.90;;;;;;5114087;28;20183;-71
2023/07/16 12:37:32;;;;;;;5.40;4.05;;;23.60;57.70;;;;;;5113853;28;20264;-73
2023/07/16 12:39:57;;;;;;;4.90;4.40;;;23.70;57.60;;;;;;5113732;28;20316;-72
2023/07/16 12:42:23;;;;;;;6.55;4.35;;;23.70;57.50;;;;;;5114378;28;20244;-71